Terminal Aerodrome Forecast
Issued by NWS Chicago, IL

Home | Current Version | Previous Version | Text Only | Print | Product List | Glossary Off
Versions: 1 2 3 4 5 6 7 8 9 10 11 12 13 14 15 16 17 18 19 20 21 22 23 24 25 26 27 28 29 30 31 32 33 34 35 36 37 38 39

000
FTUS43 KLOT 251800 AAA
TAFRFD
TAF AMD
KRFD 251852Z 2519/2618 04019G28KT P6SM SCT020 BKN040
     FM260100 02012KT P6SM SCT020
     FM260800 VRB03KT P6SM FEW020 BKN150
     FM261400 19007KT P6SM FEW025 BKN080=

USA.gov is the U.S. government's official web portal to all federal, state and local government web resources and services.